createdAt,value
2018-12-16T00:00:38.929Z,27.37
2018-12-16T00:03:07.464Z,24.90
2018-12-16T00:05:35.980Z,25.00
2018-12-16T00:08:04.650Z,27.07
2018-12-16T00:10:33.183Z,23.43
2018-12-16T00:13:01.694Z,27.20
2018-12-16T00:15:30.236Z,27.77
2018-12-16T00:17:58.726Z,25.10
2018-12-16T00:20:27.225Z,22.87
2018-12-16T00:22:55.719Z,26.30
2018-12-16T00:25:24.260Z,24.80
2018-12-16T00:27:52.776Z,25.40
2018-12-16T00:30:21.296Z,23.63
2018-12-16T00:32:49.875Z,26.33
2018-12-16T00:35:18.395Z,25.70
2018-12-16T00:37:46.984Z,24.07
2018-12-16T00:40:15.539Z,25.33
2018-12-16T00:42:44.087Z,25.67
2018-12-16T00:45:12.665Z,23.37
2018-12-16T00:47:41.246Z,22.50
2018-12-16T00:50:10.032Z,22.50
2018-12-16T00:52:39.114Z,24.63
2018-12-16T00:55:08.656Z,26.40
2018-12-16T00:57:37.175Z,26.67
2018-12-16T01:00:10.934Z,26.37
2018-12-16T01:02:41.534Z,24.23
2018-12-16T01:05:10.704Z,25.27
2018-12-16T01:07:39.387Z,26.30
2018-12-16T01:10:09.207Z,24.60
2018-12-16T01:12:37.713Z,26.67
2018-12-16T01:15:06.875Z,25.43
2018-12-16T01:17:35.405Z,27.47
2018-12-16T01:20:05.062Z,24.50
2018-12-16T01:22:33.647Z,25.80
2018-12-16T01:25:02.142Z,48.10
2018-12-16T01:27:30.709Z,26.13
2018-12-16T01:29:59.773Z,24.23
2018-12-16T01:32:28.287Z,26.40
2018-12-16T01:34:56.878Z,29.83
2018-12-16T01:37:25.477Z,25.93
2018-12-16T01:39:54.018Z,27.43
2018-12-16T01:42:22.527Z,25.37
2018-12-16T01:44:51.087Z,28.30
2018-12-16T01:47:19.719Z,27.00
2018-12-16T01:49:48.399Z,26.37
2018-12-16T01:52:16.889Z,24.67
2018-12-16T01:54:45.444Z,28.80
2018-12-16T01:57:14.107Z,25.53
2018-12-16T01:59:42.873Z,27.20
2018-12-16T02:02:11.431Z,26.43
2018-12-16T02:04:39.954Z,26.03
2018-12-16T02:07:08.532Z,27.53
2018-12-16T02:09:37.209Z,27.50
2018-12-16T02:12:06.452Z,28.37
2018-12-16T02:14:35.008Z,26.37
2018-12-16T02:17:03.578Z,27.00
2018-12-16T02:19:32.143Z,23.97
2018-12-16T02:22:00.741Z,28.00
2018-12-16T02:24:29.274Z,31.50
2018-12-16T02:26:57.824Z,29.03
2018-12-16T02:29:26.538Z,31.20
2018-12-16T02:31:55.088Z,30.63
2018-12-16T02:34:23.711Z,29.17
2018-12-16T02:36:52.303Z,27.73
2018-12-16T02:39:20.967Z,27.30
2018-12-16T02:41:49.509Z,26.33
2018-12-16T02:44:18.176Z,28.70
2018-12-16T02:46:46.739Z,28.23
2018-12-16T02:49:15.242Z,28.40
2018-12-16T02:51:43.774Z,28.70
2018-12-16T02:54:12.394Z,30.07
2018-12-16T02:56:40.943Z,27.50
2018-12-16T02:59:09.483Z,28.00
2018-12-16T03:01:40.084Z,26.53
2018-12-16T03:04:08.662Z,29.53
2018-12-16T03:06:37.363Z,29.93
2018-12-16T03:09:06.268Z,27.77
2018-12-16T03:11:34.843Z,28.07
2018-12-16T03:14:03.423Z,30.30
2018-12-16T03:16:32.060Z,31.93
2018-12-16T03:19:00.598Z,28.63
2018-12-16T03:21:29.379Z,27.83
2018-12-16T03:23:58.022Z,29.47
2018-12-16T03:26:27.009Z,33.47
2018-12-16T03:28:55.588Z,26.73
2018-12-16T03:31:24.138Z,30.83
2018-12-16T03:33:52.763Z,26.43
2018-12-16T03:36:21.561Z,27.47
2018-12-16T03:38:50.310Z,28.90
2018-12-16T03:41:19.033Z,29.60
2018-12-16T03:43:47.599Z,28.07
2018-12-16T03:46:16.228Z,28.90
2018-12-16T03:48:44.774Z,26.30
2018-12-16T03:51:13.432Z,30.43
2018-12-16T03:53:42.139Z,28.80
2018-12-16T03:56:10.715Z,25.63
2018-12-16T03:58:49.325Z,28.57
2018-12-16T04:01:18.497Z,31.07
2018-12-16T04:03:47.093Z,30.90
2018-12-16T04:06:15.675Z,27.57
2018-12-16T04:08:44.379Z,28.87
2018-12-16T04:11:12.883Z,29.13
2018-12-16T04:13:41.640Z,31.27
2018-12-16T04:16:10.196Z,28.83
2018-12-16T04:18:38.734Z,32.83
2018-12-16T04:21:07.484Z,33.37
2018-12-16T04:23:36.090Z,29.70
2018-12-16T04:26:04.776Z,29.63
2018-12-16T04:28:33.561Z,33.93
2018-12-16T04:31:02.164Z,27.43
2018-12-16T04:33:30.939Z,34.30
2018-12-16T04:35:59.556Z,30.80
2018-12-16T04:38:28.124Z,29.93
2018-12-16T04:40:56.743Z,31.47
2018-12-16T04:43:25.561Z,35.47
2018-12-16T04:45:54.295Z,35.43
2018-12-16T04:48:22.867Z,32.07
2018-12-16T04:50:51.432Z,34.93
2018-12-16T04:53:20.018Z,38.43
2018-12-16T04:55:48.557Z,34.63
2018-12-16T04:58:17.127Z,33.57
2018-12-16T05:00:45.688Z,35.73
2018-12-16T05:03:14.270Z,32.97
2018-12-16T05:05:42.944Z,34.77
2018-12-16T05:08:11.562Z,34.37
2018-12-16T05:10:41.561Z,33.03
2018-12-16T05:13:11.178Z,37.97
2018-12-16T05:15:39.772Z,38.87
2018-12-16T05:18:08.340Z,34.53
2018-12-16T05:20:36.974Z,38.77
2018-12-16T05:23:05.608Z,34.83
2018-12-16T05:25:34.211Z,35.90
2018-12-16T05:28:02.740Z,36.07
2018-12-16T05:30:31.284Z,36.93
2018-12-16T05:32:59.958Z,37.67
2018-12-16T05:35:28.495Z,39.47
2018-12-16T05:37:57.038Z,37.30
2018-12-16T05:40:25.605Z,37.40
2018-12-16T05:42:54.137Z,39.07
2018-12-16T05:45:22.741Z,44.00
2018-12-16T05:47:51.320Z,36.80
2018-12-16T05:50:19.907Z,37.07
2018-12-16T05:52:48.484Z,38.80
2018-12-16T05:55:17.085Z,38.13
2018-12-16T05:57:45.807Z,39.60
2018-12-16T06:00:14.418Z,38.10
2018-12-16T06:02:43.007Z,37.73
2018-12-16T06:05:11.640Z,35.63
2018-12-16T06:07:40.233Z,40.83
2018-12-16T06:10:08.963Z,34.73
2018-12-16T06:12:37.639Z,37.97
2018-12-16T06:15:06.534Z,38.00
2018-12-16T06:17:35.367Z,37.17
2018-12-16T06:20:04.347Z,38.40
2018-12-16T06:22:33.000Z,40.53
2018-12-16T06:25:01.825Z,38.63
2018-12-16T06:27:30.464Z,36.30
2018-12-16T06:29:59.500Z,44.60
2018-12-16T06:32:28.146Z,36.57
2018-12-16T06:34:56.741Z,40.23
2018-12-16T06:37:25.316Z,39.93
2018-12-16T06:39:53.831Z,38.60
2018-12-16T06:42:22.436Z,39.43
2018-12-16T06:44:51.039Z,38.53
2018-12-16T06:47:19.846Z,40.73
2018-12-16T06:49:48.705Z,38.07
2018-12-16T06:52:17.330Z,35.47
2018-12-16T06:54:45.851Z,35.47
2018-12-16T06:57:14.379Z,39.87
2018-12-16T06:59:42.992Z,41.27
2018-12-16T07:02:11.548Z,37.77
2018-12-16T07:04:40.348Z,37.47
2018-12-16T07:07:09.150Z,40.37
2018-12-16T07:09:38.321Z,38.20
2018-12-16T07:12:06.903Z,40.33
2018-12-16T07:14:35.915Z,41.93
2018-12-16T07:17:04.667Z,38.80
2018-12-16T07:19:33.654Z,39.90
2018-12-16T07:22:02.457Z,41.90
2018-12-16T07:24:31.396Z,38.73
2018-12-16T07:26:59.952Z,38.97
2018-12-16T07:29:28.615Z,37.67
2018-12-16T07:31:57.271Z,39.87
2018-12-16T07:34:26.180Z,38.80
2018-12-16T07:36:54.854Z,41.27
2018-12-16T07:39:23.891Z,44.50
2018-12-16T07:41:52.632Z,39.92
2018-12-16T07:44:21.370Z,39.10
2018-12-16T07:46:50.037Z,36.27
2018-12-16T07:49:18.723Z,38.17
2018-12-16T07:51:47.254Z,41.13
2018-12-16T07:54:16.246Z,43.00
2018-12-16T07:56:45.195Z,36.97
2018-12-16T07:59:13.853Z,42.63
2018-12-16T08:01:42.509Z,41.67
2018-12-16T08:04:11.047Z,42.33
2018-12-16T08:06:39.635Z,39.53
2018-12-16T08:09:08.188Z,41.10
2018-12-16T08:11:36.870Z,41.37
2018-12-16T08:14:05.450Z,39.70
2018-12-16T08:16:34.107Z,42.40
2018-12-16T08:19:07.017Z,40.50
2018-12-16T08:24:32.151Z,40.97
2018-12-16T08:27:00.762Z,42.90
2018-12-16T08:29:29.702Z,39.90
2018-12-16T08:31:58.285Z,40.17
2018-12-16T08:34:26.994Z,48.28
2018-12-16T08:36:59.401Z,44.33
2018-12-16T08:39:32.965Z,40.50
2018-12-16T08:42:01.877Z,39.30
2018-12-16T08:44:31.153Z,42.33
2018-12-16T08:47:02.852Z,44.63
2018-12-16T08:49:31.676Z,44.27
2018-12-16T08:52:01.423Z,39.17
2018-12-16T08:54:30.513Z,45.53
2018-12-16T08:57:03.149Z,42.33
2018-12-16T08:59:32.892Z,43.67
2018-12-16T09:02:02.310Z,42.23
2018-12-16T09:04:31.569Z,44.65
2018-12-16T09:07:01.853Z,41.97
2018-12-16T09:09:31.530Z,41.80
2018-12-16T09:12:00.143Z,45.23
2018-12-16T09:14:28.658Z,39.13
2018-12-16T09:16:57.205Z,41.07
2018-12-16T09:19:25.794Z,39.83
2018-12-16T09:21:54.373Z,40.23
2018-12-16T09:24:29.720Z,47.00
2018-12-16T09:26:59.386Z,40.43
2018-12-16T09:29:28.054Z,39.30
2018-12-16T09:31:56.605Z,38.70
2018-12-16T09:34:25.355Z,45.30
2018-12-16T09:36:54.347Z,37.70
2018-12-16T09:39:22.990Z,41.77
2018-12-16T09:41:52.968Z,42.50
2018-12-16T09:44:21.694Z,42.13
2018-12-16T09:46:51.308Z,45.93
2018-12-16T09:49:19.898Z,41.30
2018-12-16T09:51:49.653Z,39.10
2018-12-16T09:54:18.522Z,41.00
2018-12-16T09:56:50.492Z,41.93
2018-12-16T09:59:19.034Z,39.33
2018-12-16T10:01:50.742Z,46.77
2018-12-16T10:04:19.338Z,39.73
2018-12-16T10:06:48.071Z,42.90
2018-12-16T10:09:16.844Z,42.90
2018-12-16T10:11:45.445Z,43.73
2018-12-16T10:14:14.043Z,42.77
2018-12-16T10:16:42.674Z,42.20
2018-12-16T10:19:11.306Z,39.47
2018-12-16T10:21:39.940Z,42.67
2018-12-16T10:24:08.977Z,47.00
2018-12-16T10:26:37.599Z,42.17
2018-12-16T10:29:06.295Z,43.60
2018-12-16T10:31:34.960Z,44.87
2018-12-16T10:34:03.553Z,42.17
2018-12-16T10:36:32.313Z,45.67
2018-12-16T10:39:01.911Z,40.57
2018-12-16T10:41:30.803Z,46.80
2018-12-16T10:43:59.469Z,42.57
2018-12-16T10:46:28.043Z,52.97
2018-12-16T10:49:04.570Z,47.00
2018-12-16T10:51:29.370Z,50.17
2018-12-16T10:53:58.167Z,43.47
2018-12-16T10:56:26.700Z,46.97
2018-12-16T10:58:55.388Z,46.20
2018-12-16T11:01:29.412Z,47.57
2018-12-16T11:03:58.640Z,46.50
2018-12-16T11:06:27.377Z,45.80
2018-12-16T11:08:56.278Z,49.37
2018-12-16T11:11:25.169Z,48.20
2018-12-16T11:13:53.751Z,47.60
2018-12-16T11:16:22.420Z,51.47
2018-12-16T11:18:51.019Z,49.97
2018-12-16T11:21:20.037Z,48.93
2018-12-16T11:23:53.742Z,49.80
2018-12-16T11:26:19.847Z,49.07
2018-12-16T11:28:48.682Z,52.93
2018-12-16T11:31:17.448Z,48.60
2018-12-16T11:33:46.076Z,49.47
2018-12-16T11:36:14.787Z,56.30
2018-12-16T11:38:43.375Z,56.20
2018-12-16T11:41:11.998Z,49.07
2018-12-16T11:43:40.804Z,48.20
2018-12-16T11:46:13.725Z,51.00
2018-12-16T11:48:44.012Z,53.00
2018-12-16T11:51:19.925Z,54.17
2018-12-16T11:53:49.196Z,50.90
2018-12-16T11:56:17.849Z,49.43
2018-12-16T11:58:46.432Z,49.73
2018-12-16T12:01:15.031Z,52.20
2018-12-16T12:03:43.681Z,50.17
2018-12-16T12:06:12.258Z,53.13
2018-12-16T12:08:40.884Z,54.40
2018-12-16T12:11:09.812Z,50.47
2018-12-16T12:13:38.395Z,55.60
2018-12-16T12:16:07.003Z,53.83
2018-12-16T12:18:35.584Z,45.10
2018-12-16T12:21:04.188Z,52.73
2018-12-16T12:23:32.751Z,51.47
2018-12-16T12:26:02.153Z,54.13
2018-12-16T12:28:31.069Z,50.20
2018-12-16T12:30:59.935Z,48.03
2018-12-16T12:33:28.623Z,55.33
2018-12-16T12:35:57.211Z,50.87
2018-12-16T12:38:26.024Z,47.73
2018-12-16T12:40:54.615Z,51.27
2018-12-16T12:43:23.220Z,51.23
2018-12-16T12:45:51.889Z,46.17
2018-12-16T12:48:20.430Z,53.20
2018-12-16T12:50:48.983Z,48.17
2018-12-16T12:53:17.615Z,52.43
2018-12-16T12:55:46.218Z,50.40
2018-12-16T12:58:14.888Z,54.03
2018-12-16T13:00:43.474Z,52.03
2018-12-16T13:03:12.081Z,51.90
2018-12-16T13:05:47.319Z,57.23
2018-12-16T13:08:15.939Z,51.77
2018-12-16T13:10:44.700Z,58.77
2018-12-16T13:13:13.382Z,56.70
2018-12-16T13:15:42.063Z,54.80
2018-12-16T13:18:10.763Z,56.70
2018-12-16T13:20:39.410Z,53.60
2018-12-16T13:23:08.008Z,55.23
2018-12-16T13:25:47.659Z,54.93
2018-12-16T13:28:16.322Z,55.17
2018-12-16T13:30:44.980Z,56.53
2018-12-16T13:33:13.608Z,57.53
2018-12-16T13:35:42.310Z,57.80
2018-12-16T13:38:11.348Z,52.37
2018-12-16T13:40:39.929Z,59.40
2018-12-16T13:43:08.552Z,58.70
2018-12-16T13:45:37.126Z,57.53
2018-12-16T13:48:05.739Z,55.83
2018-12-16T13:50:34.500Z,55.93
2018-12-16T13:53:03.059Z,60.53
2018-12-16T13:55:31.793Z,54.43
2018-12-16T13:58:00.437Z,63.90
2018-12-16T14:00:29.018Z,55.33
2018-12-16T14:02:57.599Z,55.83
2018-12-16T14:05:26.185Z,61.00
2018-12-16T14:07:54.776Z,53.70
2018-12-16T14:10:23.485Z,57.73
2018-12-16T14:12:52.059Z,57.77
2018-12-16T14:15:20.665Z,50.37
2018-12-16T14:17:49.242Z,54.43
2018-12-16T14:20:17.769Z,56.40
2018-12-16T14:22:46.403Z,52.80
2018-12-16T14:25:15.084Z,57.83
2018-12-16T14:27:43.650Z,54.23
2018-12-16T14:30:12.882Z,54.73
2018-12-16T14:32:41.630Z,52.80
2018-12-16T14:35:11.251Z,58.10
2018-12-16T14:37:39.942Z,52.97
2018-12-16T14:40:09.996Z,53.93
2018-12-16T14:42:38.899Z,55.43
2018-12-16T14:45:09.380Z,54.97
2018-12-16T14:47:37.955Z,57.20
2018-12-16T14:50:09.159Z,56.77
2018-12-16T14:52:37.746Z,61.67
2018-12-16T14:55:07.633Z,59.90
2018-12-16T14:57:36.290Z,59.17
2018-12-16T15:00:08.176Z,54.83
2018-12-16T15:02:36.856Z,57.77
2018-12-16T15:05:06.176Z,59.43
2018-12-16T15:07:35.014Z,60.57
2018-12-16T15:10:04.500Z,61.83
2018-12-16T15:12:33.091Z,62.20
2018-12-16T15:15:01.972Z,64.03
2018-12-16T15:17:30.573Z,60.30
2018-12-16T15:19:59.149Z,62.53
2018-12-16T15:22:27.767Z,55.73
2018-12-16T15:24:56.308Z,56.67
2018-12-16T15:27:25.006Z,53.67
2018-12-16T15:29:53.710Z,53.27
2018-12-16T15:32:22.409Z,58.57
2018-12-16T15:34:50.986Z,57.83
2018-12-16T15:37:19.539Z,53.67
2018-12-16T15:39:48.128Z,55.07
2018-12-16T15:42:16.732Z,55.33
2018-12-16T15:44:45.349Z,57.57
2018-12-16T15:47:13.975Z,55.13
2018-12-16T15:49:42.573Z,56.33
2018-12-16T15:52:11.133Z,57.00
2018-12-16T15:54:39.651Z,55.23
2018-12-16T15:57:09.311Z,65.13
2018-12-16T15:59:37.853Z,56.73
2018-12-16T16:02:06.413Z,56.83
2018-12-16T16:04:35.598Z,56.67
2018-12-16T16:07:04.230Z,57.77
2018-12-16T16:09:32.871Z,56.50
2018-12-16T16:12:01.502Z,54.73
2018-12-16T16:14:30.072Z,55.47
2018-12-16T16:16:58.658Z,57.20
2018-12-16T16:19:27.336Z,58.77
2018-12-16T16:21:55.927Z,66.47
2018-12-16T16:24:25.051Z,58.07
2018-12-16T16:26:53.665Z,59.87
2018-12-16T16:29:22.260Z,59.20
2018-12-16T16:31:50.895Z,65.50
2018-12-16T16:34:19.489Z,58.80
2018-12-16T16:36:48.042Z,60.50
2018-12-16T16:39:16.596Z,60.77
2018-12-16T16:41:45.120Z,58.47
2018-12-16T16:44:14.404Z,58.03
2018-12-16T16:46:43.149Z,60.07
2018-12-16T16:49:11.687Z,56.60
2018-12-16T16:51:40.461Z,60.80
2018-12-16T16:54:08.999Z,56.37
2018-12-16T16:56:37.644Z,62.90
2018-12-16T16:59:06.235Z,58.57
2018-12-16T17:01:35.002Z,62.33
2018-12-16T17:04:03.567Z,66.40
2018-12-16T17:06:32.177Z,57.70
2018-12-16T17:09:00.760Z,57.60
2018-12-16T17:11:29.541Z,59.43
2018-12-16T17:13:58.565Z,55.90
2018-12-16T17:16:27.325Z,65.33
2018-12-16T17:18:57.526Z,57.53
2018-12-16T17:21:26.537Z,56.77
2018-12-16T17:23:55.202Z,55.13
2018-12-16T17:26:30.099Z,57.37
2018-12-16T17:28:55.036Z,53.80
2018-12-16T17:31:23.793Z,55.47
2018-12-16T17:33:52.392Z,58.60
2018-12-16T17:36:20.997Z,58.27
2018-12-16T17:38:49.667Z,53.13
2018-12-16T17:41:18.440Z,54.20
2018-12-16T17:43:47.006Z,65.27
2018-12-16T17:46:15.654Z,57.47
2018-12-16T17:48:45.286Z,56.47
2018-12-16T17:51:13.852Z,51.90
2018-12-16T17:53:42.583Z,56.17
2018-12-16T17:56:11.276Z,55.87
2018-12-16T17:58:39.886Z,56.23
2018-12-16T18:01:08.573Z,54.87
2018-12-16T18:03:37.499Z,59.60
2018-12-16T18:06:06.287Z,58.80
2018-12-16T18:08:35.624Z,60.57
2018-12-16T18:11:04.263Z,65.63
2018-12-16T18:13:33.324Z,57.80
2018-12-16T18:16:02.007Z,64.00
2018-12-16T18:18:30.581Z,65.63
2018-12-16T18:20:59.179Z,76.90
2018-12-16T18:23:29.787Z,67.60
2018-12-16T18:25:58.457Z,71.57
2018-12-16T18:28:27.010Z,67.47
2018-12-16T18:30:55.679Z,69.00
2018-12-16T18:33:24.439Z,66.43
2018-12-16T18:35:53.112Z,69.27
2018-12-16T18:38:21.827Z,66.37
2018-12-16T18:40:50.407Z,72.87
2018-12-16T18:43:19.087Z,63.67
2018-12-16T18:45:47.790Z,65.90
2018-12-16T18:48:16.386Z,66.70
2018-12-16T18:50:45.008Z,61.83
2018-12-16T18:53:13.764Z,74.53
2018-12-16T18:55:42.415Z,61.07
2018-12-16T18:58:11.053Z,67.43
2018-12-16T19:00:39.912Z,72.47
2018-12-16T19:03:08.538Z,64.67
2018-12-16T19:05:37.503Z,67.03
2018-12-16T19:08:06.067Z,67.73
2018-12-16T19:10:35.087Z,68.93
2018-12-16T19:13:03.750Z,67.40
2018-12-16T19:15:32.412Z,69.63
2018-12-16T19:18:00.996Z,71.40
2018-12-16T19:20:29.910Z,60.33
2018-12-16T19:22:58.599Z,68.73
2018-12-16T19:25:27.224Z,62.57
2018-12-16T19:27:56.023Z,72.20
2018-12-16T19:30:24.748Z,68.00
2018-12-16T19:32:53.639Z,64.67
2018-12-16T19:35:22.432Z,61.60
2018-12-16T19:37:51.433Z,68.23
2018-12-16T19:40:20.079Z,59.53
2018-12-16T19:42:48.743Z,62.17
2018-12-16T19:45:17.461Z,65.17
2018-12-16T19:47:49.582Z,62.00
2018-12-16T19:50:16.783Z,71.83
2018-12-16T19:52:45.490Z,61.23
2018-12-16T19:55:14.800Z,65.03
2018-12-16T19:57:43.464Z,73.67
2018-12-16T20:00:12.102Z,62.40
2018-12-16T20:02:40.724Z,63.50
2018-12-16T20:05:13.953Z,64.20
2018-12-16T20:07:42.703Z,67.83
2018-12-16T20:10:11.292Z,61.13
2018-12-16T20:12:40.326Z,63.67
2018-12-16T20:15:09.086Z,64.33
2018-12-16T20:17:37.838Z,68.07
2018-12-16T20:20:07.114Z,66.33
2018-12-16T20:22:35.687Z,63.73
2018-12-16T20:25:04.631Z,64.63
2018-12-16T20:27:33.433Z,71.33
2018-12-16T20:30:02.281Z,66.47
2018-12-16T20:32:31.396Z,64.40
2018-12-16T20:35:00.263Z,72.50
2018-12-16T20:37:29.232Z,73.77
2018-12-16T20:39:57.992Z,72.23
2018-12-16T20:42:26.939Z,72.13
2018-12-16T20:44:55.611Z,80.97
2018-12-16T20:47:24.635Z,74.53
2018-12-16T20:49:53.284Z,72.27
2018-12-16T20:52:21.873Z,80.70
2018-12-16T20:54:50.539Z,88.53
2018-12-16T20:57:19.193Z,76.93
2018-12-16T20:59:48.427Z,79.70
2018-12-16T21:02:17.362Z,81.67
2018-12-16T21:04:46.002Z,82.90
2018-12-16T21:07:14.633Z,78.80
2018-12-16T21:09:43.340Z,84.73
2018-12-16T21:12:17.504Z,89.13
2018-12-16T21:14:51.706Z,86.47
2018-12-16T21:17:26.086Z,80.97
2018-12-16T21:19:54.762Z,83.70
2018-12-16T21:22:23.379Z,82.67
2018-12-16T21:24:53.002Z,87.60
2018-12-16T21:27:25.950Z,93.30
2018-12-16T21:29:52.671Z,83.00
2018-12-16T21:32:21.353Z,82.77
2018-12-16T21:34:49.956Z,84.30
2018-12-16T21:37:18.597Z,95.13
2018-12-16T21:39:47.376Z,85.97
2018-12-16T21:42:15.927Z,93.53
2018-12-16T21:44:44.532Z,83.30
2018-12-16T21:47:13.143Z,88.00
2018-12-16T21:49:41.726Z,96.20
2018-12-16T21:52:10.491Z,99.47
2018-12-16T21:54:39.080Z,92.50
2018-12-16T21:57:07.656Z,92.23
2018-12-16T21:59:36.548Z,96.97
2018-12-16T22:02:05.146Z,94.93
2018-12-16T22:04:34.331Z,95.17
2018-12-16T22:07:03.603Z,96.23
2018-12-16T22:09:32.162Z,99.73
2018-12-16T22:12:00.737Z,100.20
2018-12-16T22:14:29.342Z,113.00
2018-12-16T22:16:58.007Z,102.50
2018-12-16T22:19:26.548Z,87.97
2018-12-16T22:21:55.249Z,92.27
2018-12-16T22:24:24.176Z,89.50
2018-12-16T22:26:52.949Z,90.13
2018-12-16T22:29:21.609Z,87.37
2018-12-16T22:31:50.237Z,92.80
2018-12-16T22:34:18.917Z,82.63
2018-12-16T22:36:47.679Z,87.80
2018-12-16T22:39:16.363Z,94.20
2018-12-16T22:41:45.035Z,96.00
2018-12-16T22:44:13.785Z,85.57
2018-12-16T22:46:42.525Z,89.90
2018-12-16T22:49:11.211Z,86.03
2018-12-16T22:51:40.347Z,83.23
2018-12-16T22:54:09.072Z,92.03
2018-12-16T22:56:37.928Z,86.23
2018-12-16T22:59:06.549Z,89.97
2018-12-16T23:01:35.147Z,93.33
2018-12-16T23:04:04.262Z,95.77
2018-12-16T23:06:38.999Z,87.77
2018-12-16T23:09:08.386Z,102.17
2018-12-16T23:11:41.672Z,108.27
2018-12-16T23:14:13.763Z,107.67
2018-12-16T23:16:44.031Z,102.77
2018-12-16T23:19:14.363Z,104.30
2018-12-16T23:21:44.851Z,97.47
2018-12-16T23:24:13.583Z,90.73
2018-12-16T23:26:42.374Z,98.70
2018-12-16T23:29:11.053Z,97.43
2018-12-16T23:31:39.839Z,99.97
2018-12-16T23:34:08.505Z,98.23
2018-12-16T23:36:37.183Z,101.47
2018-12-16T23:39:06.559Z,99.57
2018-12-16T23:41:49.840Z,96.63
2018-12-16T23:44:18.731Z,101.03
2018-12-16T23:47:08.733Z,98.87
2018-12-16T23:49:37.512Z,93.77
2018-12-16T23:52:06.353Z,104.60
2018-12-16T23:54:35.035Z,116.43
2018-12-16T23:57:04.693Z,116.40
2018-12-16T23:59:34.606Z,112.70
